Time;durP1;ratioP1;P1;durP2;ratioP2;P2;SDS_P1;SDS_P2;PMS_P1;PMS_P2;Temp;Humidity;BMP_temperature;BMP_pressure;BME280_temperature;BME280_humidity;BME280_pressure;Samples;Min_cycle;Max_cycle;Signal;HPM_P1;HPM_P2
2022/09/10 00:00:58;;;;;;;16.88;11.85;;;15.30;99.90;;;;;;4998784;28;20048;-81
2022/09/10 00:03:24;;;;;;;13.55;12.00;;;15.20;99.90;;;;;;4997923;28;20045;-81
2022/09/10 00:05:50;;;;;;;14.38;12.88;;;15.30;99.90;;;;;;5015167;28;20044;-81
2022/09/10 00:08:17;;;;;;;15.45;12.88;;;15.30;99.90;;;;;;5013652;28;20505;-81
2022/09/10 00:10:48;;;;;;;14.95;12.75;;;15.30;99.90;;;;;;5007001;28;20493;-81
2022/09/10 00:13:18;;;;;;;17.23;15.20;;;15.20;99.90;;;;;;4998257;28;20077;-80
2022/09/10 00:15:46;;;;;;;16.80;15.10;;;15.20;99.90;;;;;;4995469;28;20528;-81
2022/09/10 00:18:14;;;;;;;16.50;14.85;;;15.20;99.90;;;;;;4995036;28;20117;-81
2022/09/10 00:20:49;;;;;;;17.02;15.07;;;15.20;99.90;;;;;;4976354;28;20394;-81
2022/09/10 00:23:17;;;;;;;18.70;15.85;;;15.20;99.90;;;;;;4987736;28;20045;-81
2022/09/10 00:25:44;;;;;;;18.33;16.40;;;15.20;99.90;;;;;;4992290;28;20033;-81
2022/09/10 00:28:10;;;;;;;16.10;13.77;;;15.10;99.90;;;;;;4979444;28;20438;-81
2022/09/10 00:30:45;;;;;;;17.17;14.93;;;15.10;99.90;;;;;;4978568;28;20378;-81
2022/09/10 00:33:12;;;;;;;15.90;14.23;;;15.20;99.90;;;;;;4995012;28;20493;-81
2022/09/10 00:35:39;;;;;;;16.92;15.13;;;15.10;99.90;;;;;;4994910;28;20030;-81
2022/09/10 00:38:06;;;;;;;17.83;15.40;;;15.20;99.90;;;;;;4978522;28;20045;-81
2022/09/10 00:40:32;;;;;;;15.75;13.77;;;15.20;99.90;;;;;;4935746;28;20050;-81
2022/09/10 00:42:58;;;;;;;15.63;13.50;;;15.10;99.90;;;;;;4998691;28;20045;-81
2022/09/10 00:45:32;;;;;;;19.25;16.33;;;15.20;99.90;;;;;;4988942;28;20452;-81
2022/09/10 00:48:15;;;;;;;15.20;13.63;;;15.20;99.90;;;;;;4986308;28;20486;-81
2022/09/10 00:50:44;;;;;;;18.15;15.45;;;15.10;99.90;;;;;;4982463;28;20076;-81
2022/09/10 00:53:14;;;;;;;16.77;14.40;;;15.10;99.90;;;;;;4998166;28;20543;-81
2022/09/10 00:55:43;;;;;;;18.30;15.70;;;15.10;99.90;;;;;;5004186;28;20493;-81
2022/09/10 00:58:11;;;;;;;18.15;15.55;;;15.10;99.90;;;;;;4996726;28;20113;-81
2022/09/10 01:00:40;;;;;;;17.17;14.27;;;15.10;99.90;;;;;;4999122;28;20069;-81
2022/09/10 01:03:10;;;;;;;17.45;15.02;;;15.10;99.90;;;;;;4998688;28;20037;-81
2022/09/10 01:05:37;;;;;;;19.35;17.33;;;15.10;99.90;;;;;;4999406;28;20037;-80
2022/09/10 01:08:03;;;;;;;27.48;17.73;;;15.10;99.90;;;;;;4993518;28;20046;-79
2022/09/10 01:10:36;;;;;;;18.23;16.13;;;15.10;99.90;;;;;;5008594;28;20030;-79
2022/09/10 01:13:17;;;;;;;19.73;17.00;;;15.10;99.90;;;;;;5024480;28;20056;-79
2022/09/10 01:16:08;;;;;;;18.83;16.92;;;15.10;99.90;;;;;;5012161;28;20095;-80
2022/09/10 01:18:39;;;;;;;18.55;16.65;;;15.20;99.90;;;;;;5028996;28;20042;-81
2022/09/10 01:21:14;;;;;;;20.15;17.92;;;15.20;99.90;;;;;;4997573;28;20048;-81
2022/09/10 01:23:56;;;;;;;17.42;15.63;;;15.20;99.90;;;;;;4989930;28;20080;-80
2022/09/10 01:26:35;;;;;;;17.60;15.73;;;15.20;99.90;;;;;;5023640;28;20074;-81
2022/09/10 01:29:01;;;;;;;18.55;16.63;;;15.20;99.90;;;;;;5000159;28;20041;-81
2022/09/10 01:31:44;;;;;;;17.70;15.82;;;15.20;99.90;;;;;;5013046;28;20405;-80
2022/09/10 01:34:19;;;;;;;20.20;17.60;;;15.20;99.90;;;;;;4995959;28;20046;-81
2022/09/10 01:36:48;;;;;;;19.83;17.15;;;15.20;99.90;;;;;;4993398;28;20049;-81
2022/09/10 01:39:19;;;;;;;20.08;17.98;;;15.20;99.90;;;;;;5009121;28;20056;-81
2022/09/10 01:41:47;;;;;;;20.15;17.77;;;15.20;99.90;;;;;;5008989;28;20041;-82
2022/09/10 01:44:44;;;;;;;21.50;18.63;;;15.20;99.90;;;;;;4974366;28;20485;-80
2022/09/10 01:47:16;;;;;;;21.58;18.95;;;15.20;99.90;;;;;;5009564;28;20139;-81
2022/09/10 01:49:59;;;;;;;20.38;18.02;;;15.20;99.90;;;;;;4981665;28;20045;-81
2022/09/10 01:52:32;;;;;;;18.83;15.25;;;15.20;99.90;;;;;;4982906;28;20037;-82
2022/09/10 01:55:16;;;;;;;21.80;18.98;;;15.20;99.90;;;;;;4986312;28;20041;-81
2022/09/10 01:58:08;;;;;;;18.58;16.60;;;15.20;99.90;;;;;;5002621;28;20481;-81
2022/09/10 02:00:37;;;;;;;17.55;15.75;;;15.20;99.90;;;;;;4990870;28;20054;-81
2022/09/10 02:03:14;;;;;;;18.88;15.57;;;15.20;99.90;;;;;;5002215;28;20073;-81
2022/09/10 02:05:43;;;;;;;20.58;18.13;;;15.20;99.90;;;;;;4990552;28;20099;-80
2022/09/10 02:08:15;;;;;;;18.58;16.58;;;15.30;99.90;;;;;;5006671;28;20041;-79
2022/09/10 02:10:54;;;;;;;17.27;15.48;;;15.30;99.90;;;;;;4989939;28;20041;-80
2022/09/10 02:13:23;;;;;;;21.80;18.83;;;15.30;99.90;;;;;;5008945;28;20107;-80
2022/09/10 02:15:51;;;;;;;19.05;16.70;;;15.30;99.90;;;;;;5009885;28;20052;-80
2022/09/10 02:18:19;;;;;;;19.95;17.77;;;15.30;99.90;;;;;;5016072;28;20500;-80
2022/09/10 02:20:46;;;;;;;18.48;16.58;;;15.30;99.90;;;;;;5016739;28;20045;-81
2022/09/10 02:23:17;;;;;;;17.65;15.88;;;15.30;99.90;;;;;;5006947;28;20120;-81
2022/09/10 02:25:43;;;;;;;19.02;16.13;;;15.40;99.90;;;;;;5023393;28;20041;-81
2022/09/10 02:28:09;;;;;;;17.35;15.50;;;15.40;99.90;;;;;;5016787;28;20523;-81
2022/09/10 02:30:35;;;;;;;23.50;19.83;;;15.40;99.90;;;;;;4997829;28;20053;-81
2022/09/10 02:33:02;;;;;;;22.30;18.73;;;15.40;99.90;;;;;;5014655;28;20037;-80
2022/09/10 02:35:28;;;;;;;21.13;18.27;;;15.40;99.90;;;;;;5016955;28;20081;-81
2022/09/10 02:37:55;;;;;;;22.20;18.52;;;15.40;99.90;;;;;;4996703;28;20038;-81
2022/09/10 02:40:21;;;;;;;19.67;17.67;;;15.40;99.90;;;;;;5011851;28;20107;-81
2022/09/10 02:42:47;;;;;;;22.48;18.38;;;15.40;99.90;;;;;;5000306;28;20076;-81
2022/09/10 02:45:13;;;;;;;21.35;18.90;;;15.30;99.90;;;;;;4999808;28;20034;-81
2022/09/10 02:47:39;;;;;;;20.15;17.95;;;15.30;99.90;;;;;;5028135;28;20544;-81
2022/09/10 02:50:06;;;;;;;21.67;19.40;;;15.40;99.90;;;;;;5004782;28;20124;-82
2022/09/10 02:52:32;;;;;;;20.55;16.85;;;15.40;99.90;;;;;;4999138;28;20029;-81
2022/09/10 02:54:58;;;;;;;22.15;17.52;;;15.40;99.90;;;;;;5016455;28;20091;-80
2022/09/10 02:57:25;;;;;;;20.83;18.35;;;15.30;99.90;;;;;;5015725;28;20107;-80
2022/09/10 02:59:52;;;;;;;24.77;20.48;;;15.40;99.90;;;;;;5003352;28;20045;-81
2022/09/10 03:02:19;;;;;;;19.40;16.58;;;15.40;99.90;;;;;;5015988;28;20048;-81
2022/09/10 03:04:45;;;;;;;24.27;19.35;;;15.40;99.90;;;;;;5006351;28;20040;-81
2022/09/10 03:07:11;;;;;;;23.95;19.08;;;15.40;99.90;;;;;;4986919;28;20080;-80
2022/09/10 03:09:39;;;;;;;20.80;16.00;;;15.40;99.90;;;;;;4974312;28;20136;-81
2022/09/10 03:12:06;;;;;;;24.35;19.17;;;15.40;99.90;;;;;;5010655;28;20096;-81
2022/09/10 03:14:33;;;;;;;24.35;20.77;;;15.40;99.90;;;;;;4996755;28;20034;-81
2022/09/10 03:16:59;;;;;;;24.67;19.77;;;15.40;99.90;;;;;;4995911;28;20502;-81
2022/09/10 03:19:25;;;;;;;26.30;21.55;;;15.40;99.90;;;;;;4980249;28;20061;-81
2022/09/10 03:21:51;;;;;;;28.42;21.05;;;15.30;99.90;;;;;;4995887;28;20497;-81
2022/09/10 03:24:18;;;;;;;24.60;20.08;;;15.30;99.90;;;;;;4995931;28;20042;-81
2022/09/10 03:26:44;;;;;;;24.63;19.83;;;15.30;99.90;;;;;;4979473;28;20081;-81
2022/09/10 03:29:10;;;;;;;24.02;18.90;;;15.30;99.90;;;;;;4979152;28;20044;-81
2022/09/10 03:31:36;;;;;;;26.58;20.60;;;15.30;99.90;;;;;;4994061;28;20034;-81
2022/09/10 03:34:02;;;;;;;27.00;20.13;;;15.30;99.90;;;;;;4994696;28;20485;-81
2022/09/10 03:36:30;;;;;;;24.92;18.25;;;15.30;99.90;;;;;;4980246;28;20502;-80
2022/09/10 03:38:59;;;;;;;24.65;19.27;;;15.30;99.90;;;;;;4977806;28;20054;-81
2022/09/10 03:41:27;;;;;;;27.10;20.17;;;15.30;99.90;;;;;;4983687;28;20046;-81
2022/09/10 03:43:53;;;;;;;27.60;20.90;;;15.30;99.90;;;;;;4984502;28;20509;-81
2022/09/10 03:46:20;;;;;;;25.25;20.60;;;15.30;99.90;;;;;;4991911;28;20048;-81
2022/09/10 03:48:46;;;;;;;24.20;18.40;;;15.30;99.90;;;;;;4991933;28;20050;-80
2022/09/10 03:51:12;;;;;;;23.00;18.15;;;15.30;99.90;;;;;;4977861;28;20041;-80
2022/09/10 03:53:37;;;;;;;27.95;19.30;;;15.30;99.90;;;;;;4991316;28;20127;-81
2022/09/10 03:56:04;;;;;;;21.92;18.75;;;15.30;99.90;;;;;;4987524;28;20093;-80
2022/09/10 03:58:31;;;;;;;23.92;19.67;;;15.30;99.90;;;;;;4978081;28;20048;-80
2022/09/10 04:00:57;;;;;;;26.15;21.55;;;15.40;99.90;;;;;;4981064;28;20053;-80
2022/09/10 04:03:23;;;;;;;23.95;19.75;;;15.40;99.90;;;;;;4993252;28;20046;-80
2022/09/10 04:05:49;;;;;;;26.65;20.88;;;15.30;99.90;;;;;;4976134;28;20042;-80
2022/09/10 04:08:15;;;;;;;26.02;20.15;;;15.40;99.90;;;;;;4991557;28;20042;-80
2022/09/10 04:10:42;;;;;;;28.27;20.42;;;15.30;99.90;;;;;;4981091;28;20034;-81
2022/09/10 04:13:09;;;;;;;24.45;21.35;;;15.40;99.90;;;;;;4982498;28;20076;-81
2022/09/10 04:15:36;;;;;;;27.27;21.00;;;15.40;99.90;;;;;;5008404;28;20591;-81
2022/09/10 04:18:02;;;;;;;20.80;17.80;;;15.30;99.90;;;;;;4987786;28;20046;-81
2022/09/10 04:20:28;;;;;;;27.00;20.23;;;15.30;99.90;;;;;;4985848;28;20038;-81
2022/09/10 04:22:55;;;;;;;27.77;21.75;;;15.40;99.90;;;;;;4992120;28;20049;-81
2022/09/10 04:25:21;;;;;;;28.05;21.23;;;15.40;99.90;;;;;;5006535;28;20538;-81
2022/09/10 04:27:48;;;;;;;27.13;20.38;;;15.40;99.90;;;;;;4970538;28;20046;-81
2022/09/10 04:30:14;;;;;;;26.63;20.33;;;15.40;99.90;;;;;;4995551;28;20081;-81
2022/09/10 04:32:40;;;;;;;29.75;22.13;;;15.40;99.90;;;;;;4994754;28;20038;-81
2022/09/10 04:35:07;;;;;;;26.85;21.52;;;15.40;99.90;;;;;;4994858;28;20068;-81
2022/09/10 04:37:33;;;;;;;28.50;21.85;;;15.50;99.90;;;;;;4978701;28;20564;-81
2022/09/10 04:39:59;;;;;;;29.20;23.80;;;15.50;99.90;;;;;;4992457;28;20077;-81
2022/09/10 04:42:25;;;;;;;28.70;21.63;;;15.50;99.90;;;;;;4978969;28;20120;-81
2022/09/10 04:44:51;;;;;;;32.65;23.30;;;15.40;99.90;;;;;;5000115;28;20512;-81
2022/09/10 04:47:17;;;;;;;29.77;24.38;;;15.50;99.90;;;;;;5003751;28;20077;-81
2022/09/10 04:49:43;;;;;;;30.05;23.55;;;15.50;99.90;;;;;;4965465;28;20069;-81
2022/09/10 04:52:10;;;;;;;30.33;23.05;;;15.50;99.90;;;;;;4990000;28;20042;-81
2022/09/10 04:54:37;;;;;;;29.38;22.42;;;15.50;99.90;;;;;;4962647;28;20089;-81
2022/09/10 04:57:06;;;;;;;31.23;24.60;;;15.50;99.90;;;;;;4980486;28;20045;-81
2022/09/10 04:59:33;;;;;;;29.48;24.92;;;15.50;99.90;;;;;;4995414;28;20539;-81
2022/09/10 05:02:00;;;;;;;33.42;25.90;;;15.50;99.90;;;;;;4993460;28;20495;-81
2022/09/10 05:04:26;;;;;;;32.33;24.02;;;15.50;99.90;;;;;;4979403;28;20500;-81
2022/09/10 05:06:52;;;;;;;30.85;23.73;;;15.50;99.90;;;;;;4975948;28;20042;-81
2022/09/10 05:09:19;;;;;;;28.33;22.58;;;15.50;99.90;;;;;;4995244;28;20404;-81
2022/09/10 05:11:48;;;;;;;25.95;22.08;;;15.40;99.90;;;;;;4994342;28;20192;-81
2022/09/10 05:14:15;;;;;;;30.98;23.90;;;15.50;99.90;;;;;;4966012;28;20129;-81
2022/09/10 05:16:42;;;;;;;30.02;24.30;;;15.50;99.90;;;;;;5005923;28;20060;-81
2022/09/10 05:19:07;;;;;;;28.23;21.58;;;15.50;99.90;;;;;;4977106;28;20092;-81
2022/09/10 05:21:33;;;;;;;29.42;23.73;;;15.50;99.90;;;;;;4999023;28;20508;-81
2022/09/10 05:23:59;;;;;;;31.80;25.42;;;15.50;99.90;;;;;;4995958;28;20041;-81
2022/09/10 05:26:26;;;;;;;30.75;24.88;;;15.50;99.90;;;;;;4983639;28;20069;-80
2022/09/10 05:28:52;;;;;;;33.08;26.23;;;15.50;99.90;;;;;;4996944;28;20049;-81
2022/09/10 05:31:19;;;;;;;35.42;28.30;;;15.50;99.90;;;;;;5014793;28;20485;-81
2022/09/10 05:33:45;;;;;;;32.03;27.23;;;15.50;99.90;;;;;;4993374;28;20532;-81
2022/09/10 05:36:11;;;;;;;32.90;26.00;;;15.50;99.90;;;;;;4989447;28;20489;-81
2022/09/10 05:38:38;;;;;;;35.67;27.40;;;15.50;99.90;;;;;;4980994;28;20045;-81
2022/09/10 05:41:05;;;;;;;34.40;26.60;;;15.50;99.90;;;;;;4999960;28;20111;-81
2022/09/10 05:43:31;;;;;;;35.28;26.95;;;15.50;99.90;;;;;;4993482;28;20046;-81
2022/09/10 05:45:57;;;;;;;31.60;26.50;;;15.50;99.90;;;;;;5011444;28;20041;-80
2022/09/10 05:48:23;;;;;;;36.15;28.25;;;15.50;99.90;;;;;;4981770;28;20129;-81
2022/09/10 05:50:49;;;;;;;40.83;30.27;;;15.50;99.90;;;;;;4981909;28;20092;-81
2022/09/10 05:53:16;;;;;;;35.40;27.25;;;15.50;99.90;;;;;;4981045;28;20120;-81
2022/09/10 05:55:43;;;;;;;38.47;29.77;;;15.60;99.90;;;;;;4998318;28;20464;-81
2022/09/10 05:58:09;;;;;;;41.08;28.75;;;15.60;99.90;;;;;;4997272;28;20477;-81
2022/09/10 06:00:35;;;;;;;38.25;28.48;;;15.50;99.90;;;;;;4998226;28;20045;-81
2022/09/10 06:03:03;;;;;;;40.88;30.13;;;15.50;99.90;;;;;;4981664;28;20121;-81
2022/09/10 06:05:29;;;;;;;39.92;29.00;;;15.50;99.90;;;;;;4989325;28;20037;-81
2022/09/10 06:07:55;;;;;;;37.35;27.85;;;15.50;99.90;;;;;;5003814;28;20046;-81
2022/09/10 06:10:21;;;;;;;39.53;28.58;;;15.60;99.90;;;;;;4985502;28;20050;-81
2022/09/10 06:12:50;;;;;;;42.35;29.08;;;15.60;99.90;;;;;;5003836;28;20061;-80
2022/09/10 06:15:17;;;;;;;40.78;28.77;;;15.60;99.90;;;;;;4997846;28;20042;-81
2022/09/10 06:17:43;;;;;;;43.15;29.20;;;15.60;99.90;;;;;;5013759;28;20033;-81
2022/09/10 06:20:09;;;;;;;37.60;28.40;;;15.60;99.90;;;;;;5008860;28;20045;-80
2022/09/10 06:22:35;;;;;;;40.55;29.85;;;15.60;99.90;;;;;;4993983;28;20493;-81
2022/09/10 06:25:01;;;;;;;37.35;28.20;;;15.60;99.90;;;;;;4993302;28;20044;-80
2022/09/10 06:27:27;;;;;;;42.50;30.13;;;15.70;99.90;;;;;;4997254;28;20081;-81
2022/09/10 06:29:52;;;;;;;42.80;29.63;;;15.60;99.90;;;;;;4999415;28;20076;-81
2022/09/10 06:32:18;;;;;;;42.92;29.38;;;15.60;99.90;;;;;;4980961;28;20497;-81
2022/09/10 06:34:44;;;;;;;42.60;29.10;;;15.70;99.90;;;;;;4997296;28;20548;-81
2022/09/10 06:37:10;;;;;;;46.13;29.23;;;15.70;99.90;;;;;;4993280;28;20029;-81
2022/09/10 06:39:36;;;;;;;41.08;30.25;;;15.70;99.90;;;;;;4974960;28;20488;-81
2022/09/10 06:42:01;;;;;;;41.00;29.35;;;15.70;99.90;;;;;;5017096;28;20045;-80
2022/09/10 06:44:28;;;;;;;46.17;29.98;;;15.60;99.90;;;;;;4984781;28;20052;-80
2022/09/10 06:46:54;;;;;;;43.88;29.88;;;15.70;99.90;;;;;;4980522;28;20042;-81
2022/09/10 06:49:20;;;;;;;44.17;29.55;;;15.70;99.90;;;;;;4967110;28;20034;-81
2022/09/10 06:51:48;;;;;;;39.17;28.92;;;15.70;99.90;;;;;;4982713;28;20041;-81
2022/09/10 06:54:15;;;;;;;42.00;27.90;;;15.70;99.90;;;;;;5008972;28;20100;-81
2022/09/10 06:56:41;;;;;;;44.35;29.67;;;15.70;99.90;;;;;;5009767;28;20488;-81
2022/09/10 06:59:08;;;;;;;40.55;28.75;;;15.70;99.90;;;;;;4979621;28;20041;-81
2022/09/10 07:01:34;;;;;;;40.85;29.13;;;15.80;99.90;;;;;;5006505;28;20053;-81
2022/09/10 07:04:00;;;;;;;42.30;28.88;;;15.80;99.90;;;;;;5005551;28;20452;-81
2022/09/10 07:06:34;;;;;;;37.05;28.20;;;15.80;99.90;;;;;;5003942;28;20042;-81
2022/09/10 07:09:00;;;;;;;41.75;28.70;;;15.90;99.90;;;;;;5004096;28;20042;-81
2022/09/10 07:11:30;;;;;;;42.13;28.98;;;15.90;99.90;;;;;;4992262;28;20540;-81
2022/09/10 07:13:56;;;;;;;40.95;29.48;;;15.90;99.90;;;;;;5013900;28;20065;-81
2022/09/10 07:16:25;;;;;;;42.80;28.63;;;15.90;99.90;;;;;;5005642;28;20099;-81
2022/09/10 07:18:53;;;;;;;36.65;27.77;;;15.90;99.90;;;;;;5006622;28;20115;-81
2022/09/10 07:21:20;;;;;;;32.22;26.15;;;15.90;99.90;;;;;;5023286;28;20041;-81
2022/09/10 07:23:50;;;;;;;36.40;27.73;;;15.90;99.90;;;;;;5023641;28;20129;-81
2022/09/10 07:26:20;;;;;;;39.65;27.23;;;15.90;99.90;;;;;;5006838;28;20053;-81
2022/09/10 07:28:47;;;;;;;36.25;26.42;;;15.90;99.90;;;;;;5017230;28;20043;-81
2022/09/10 07:31:17;;;;;;;38.05;27.27;;;16.00;99.90;;;;;;5019404;28;20492;-81
2022/09/10 07:33:43;;;;;;;38.85;27.30;;;16.00;99.90;;;;;;5022431;28;20040;-81
2022/09/10 07:36:11;;;;;;;37.78;27.58;;;16.00;99.90;;;;;;5019261;28;20501;-82
2022/09/10 07:38:37;;;;;;;35.60;26.05;;;16.10;99.90;;;;;;5021263;28;20522;-81
2022/09/10 07:41:03;;;;;;;32.92;24.17;;;16.10;99.90;;;;;;5017920;28;20041;-81
2022/09/10 07:43:29;;;;;;;34.42;26.40;;;16.10;99.90;;;;;;5005127;28;20519;-81
2022/09/10 07:45:55;;;;;;;39.72;25.85;;;16.10;99.90;;;;;;5018079;28;20041;-81
2022/09/10 07:48:21;;;;;;;32.13;24.20;;;16.10;99.90;;;;;;5001729;28;20044;-81
2022/09/10 07:50:47;;;;;;;42.03;27.20;;;16.10;99.90;;;;;;4997277;28;20392;-81
2022/09/10 07:53:13;;;;;;;39.22;28.45;;;16.20;99.90;;;;;;5023492;28;20037;-81
2022/09/10 07:55:39;;;;;;;35.78;27.00;;;16.20;99.90;;;;;;5008211;28;20554;-81
2022/09/10 07:58:05;;;;;;;38.42;28.25;;;16.30;99.90;;;;;;5020721;28;20124;-81
2022/09/10 08:00:32;;;;;;;32.60;24.88;;;16.30;99.90;;;;;;5008985;28;20120;-81
2022/09/10 08:02:57;;;;;;;39.53;26.63;;;16.40;99.90;;;;;;5003230;28;20037;-81
2022/09/10 08:05:23;;;;;;;32.53;24.52;;;16.50;99.90;;;;;;5018515;28;20040;-81
2022/09/10 08:07:53;;;;;;;32.75;24.95;;;16.60;99.90;;;;;;5019246;28;20045;-81
2022/09/10 08:10:19;;;;;;;29.85;22.15;;;16.80;99.90;;;;;;5006448;28;20037;-81
2022/09/10 08:12:44;;;;;;;34.05;23.95;;;16.90;99.90;;;;;;5025123;28;20067;-81
2022/09/10 08:15:11;;;;;;;31.33;23.65;;;17.00;99.90;;;;;;5021025;28;20049;-82
2022/09/10 08:17:37;;;;;;;27.10;21.10;;;17.20;99.90;;;;;;5017729;28;20127;-82
2022/09/10 08:20:06;;;;;;;29.88;20.65;;;17.40;99.90;;;;;;5015492;28;20045;-82
2022/09/10 08:22:33;;;;;;;27.23;19.90;;;17.50;99.90;;;;;;5018568;28;20038;-81
2022/09/10 08:25:00;;;;;;;26.58;21.08;;;17.50;99.90;;;;;;5009574;28;20076;-80
2022/09/10 08:27:25;;;;;;;26.25;20.33;;;17.60;99.90;;;;;;5019176;28;20045;-82
2022/09/10 08:29:53;;;;;;;24.80;19.67;;;17.60;99.90;;;;;;5003773;28;20041;-82
2022/09/10 08:32:20;;;;;;;26.33;19.10;;;17.70;99.90;;;;;;5003842;28;20037;-82
2022/09/10 08:34:47;;;;;;;22.85;18.33;;;17.70;99.90;;;;;;4998027;28;20088;-81
2022/09/10 08:37:13;;;;;;;21.45;17.60;;;17.80;99.90;;;;;;4996913;28;20047;-82
2022/09/10 08:39:39;;;;;;;21.00;16.70;;;17.90;99.90;;;;;;5022309;28;20041;-83
2022/09/10 08:42:21;;;;;;;18.90;15.32;;;17.90;99.90;;;;;;5001832;28;20045;-82
2022/09/10 08:44:52;;;;;;;;;;;17.90;99.90;;;;;;5013738;28;20507;-80
2022/09/10 08:47:44;;;;;;;21.30;16.60;;;17.80;99.90;;;;;;5017683;28;20024;-81
2022/09/10 08:50:31;;;;;;;24.63;17.27;;;17.80;99.90;;;;;;5018909;28;20092;-81
2022/09/10 08:53:21;;;;;;;23.27;17.67;;;17.80;99.90;;;;;;5029748;28;20042;-81
2022/09/10 08:55:49;;;;;;;21.60;16.15;;;17.70;99.90;;;;;;5012199;28;20429;-81
2022/09/10 08:58:24;;;;;;;21.55;16.92;;;17.80;99.90;;;;;;5000007;28;20524;-83
2022/09/10 09:01:01;;;;;;;19.35;16.40;;;17.80;99.90;;;;;;4995627;28;20485;-82
2022/09/10 09:03:44;;;;;;;20.20;16.17;;;17.80;99.90;;;;;;5023727;28;20045;-81
2022/09/10 09:06:28;;;;;;;19.42;15.55;;;17.80;99.90;;;;;;5022321;28;20088;-81
2022/09/10 09:08:57;;;;;;;18.73;15.35;;;17.80;99.90;;;;;;5019586;28;20045;-82
2022/09/10 09:11:50;;;;;;;19.08;15.20;;;17.80;99.90;;;;;;5001259;28;20094;-82
2022/09/10 09:14:38;;;;;;;20.50;15.05;;;17.90;99.90;;;;;;5014978;28;20062;-82
2022/09/10 09:17:22;;;;;;;19.90;15.52;;;18.00;99.90;;;;;;5017205;28;20077;-82
2022/09/10 09:20:05;;;;;;;19.85;15.35;;;18.10;99.90;;;;;;5010677;28;20037;-82
2022/09/10 09:22:52;;;;;;;19.70;15.50;;;18.10;99.90;;;;;;5035465;28;20125;-81
2022/09/10 09:25:31;;;;;;;17.85;15.52;;;18.10;99.90;;;;;;4999017;28;20120;-84
2022/09/10 09:27:57;;;;;;;19.90;15.90;;;18.10;99.90;;;;;;5014386;28;20497;-83
2022/09/10 09:30:32;;;;;;;18.08;15.63;;;18.10;99.90;;;;;;5012186;28;20480;-84
2022/09/10 09:33:09;;;;;;;16.52;14.10;;;18.10;99.90;;;;;;5020527;28;20052;-83
2022/09/10 09:35:45;;;;;;;14.93;13.35;;;18.30;99.90;;;;;;5004990;28;20037;-84
2022/09/10 09:38:31;;;;;;;17.13;13.18;;;18.40;99.90;;;;;;5019895;28;20044;-83
2022/09/10 09:41:03;;;;;;;16.13;12.32;;;18.50;99.90;;;;;;5020123;28;20401;-83
2022/09/10 09:43:54;;;;;;;17.00;12.70;;;18.70;99.90;;;;;;5019693;28;20168;-83
2022/09/10 09:46:21;;;;;;;15.98;13.68;;;18.80;99.90;;;;;;5025492;28;20048;-84
2022/09/10 09:48:52;;;;;;;15.95;12.77;;;18.60;99.90;;;;;;5019746;28;20033;-83
2022/09/10 09:51:20;;;;;;;16.77;13.30;;;18.70;99.90;;;;;;5026835;28;20049;-83
2022/09/10 09:53:52;;;;;;;14.73;12.70;;;18.80;99.90;;;;;;5025610;28;20675;-83
2022/09/10 09:56:26;;;;;;;14.75;12.15;;;18.70;99.90;;;;;;5023551;28;20041;-83
2022/09/10 09:58:52;;;;;;;14.38;11.73;;;18.80;99.90;;;;;;5016758;28;20045;-83
2022/09/10 10:01:23;;;;;;;13.63;10.65;;;18.80;99.90;;;;;;5024426;28;20041;-82
2022/09/10 10:03:57;;;;;;;13.68;10.65;;;18.90;99.90;;;;;;5018701;28;20069;-83
2022/09/10 10:06:30;;;;;;;13.43;10.35;;;19.00;99.90;;;;;;5023806;28;20168;-82
2022/09/10 10:09:06;;;;;;;12.30;9.75;;;19.00;99.90;;;;;;5019247;28;20045;-83
2022/09/10 10:11:40;;;;;;;12.70;9.23;;;19.20;99.90;;;;;;5034417;28;20033;-83
2022/09/10 10:14:19;;;;;;;12.52;10.00;;;19.30;99.90;;;;;;5016290;28;20594;-83
2022/09/10 10:16:47;;;;;;;12.60;9.05;;;19.40;99.90;;;;;;5003239;28;20087;-82
2022/09/10 10:19:37;;;;;;;13.50;8.80;;;19.60;99.90;;;;;;5015743;28;20046;-83
2022/09/10 10:22:24;;;;;;;12.10;8.93;;;19.80;99.90;;;;;;5017299;28;20116;-82
2022/09/10 10:24:52;;;;;;;12.05;8.82;;;19.80;99.90;;;;;;5019365;28;20037;-83
2022/09/10 10:27:34;;;;;;;12.50;8.45;;;19.90;99.90;;;;;;5020909;28;20501;-83
2022/09/10 10:30:20;;;;;;;12.27;9.20;;;20.10;99.90;;;;;;5023556;28;20045;-83
2022/09/10 10:32:57;;;;;;;12.73;9.00;;;20.50;99.90;;;;;;5017657;28;20060;-83
2022/09/10 10:35:50;;;;;;;9.93;7.32;;;20.60;99.90;;;;;;5014555;28;20048;-83
2022/09/10 10:38:25;;;;;;;10.27;7.00;;;20.90;99.90;;;;;;5011796;28;20096;-82
2022/09/10 10:40:56;;;;;;;9.18;7.30;;;21.00;99.90;;;;;;5009579;28;20511;-83
2022/09/10 10:43:43;;;;;;;10.27;6.38;;;20.90;99.90;;;;;;5033091;28;20041;-83
2022/09/10 10:46:20;;;;;;;10.23;7.28;;;20.90;99.90;;;;;;5014081;28;20046;-83
2022/09/10 10:48:55;;;;;;;9.43;7.00;;;21.00;99.90;;;;;;4998934;28;20045;-83
2022/09/10 10:51:36;;;;;;;8.90;6.70;;;21.10;99.90;;;;;;5013802;28;20029;-83
2022/09/10 10:54:27;;;;;;;8.50;6.40;;;21.30;99.90;;;;;;5009324;28;20034;-82
2022/09/10 10:57:31;;;;;;;9.05;6.07;;;21.50;99.90;;;;;;4993961;28;20128;-83
2022/09/10 11:00:02;;;;;;;9.43;6.57;;;21.70;99.90;;;;;;5015221;28;20041;-82
2022/09/10 11:02:54;;;;;;;12.00;7.57;;;21.90;99.90;;;;;;5014107;28;20045;-83
2022/09/10 11:05:37;;;;;;;;;;;21.80;99.90;;;;;;5000672;28;20045;-83
2022/09/10 11:08:32;;;;;;;9.68;6.00;;;21.70;99.90;;;;;;5005276;28;20403;-83
2022/09/10 11:11:32;;;;;;;7.68;4.38;;;21.40;99.90;;;;;;5016047;28;20049;-82
2022/09/10 11:14:34;;;;;;;10.07;7.57;;;21.30;99.90;;;;;;4986535;28;20045;-83
2022/09/10 11:17:21;;;;;;;10.55;6.97;;;21.20;99.90;;;;;;4996854;28;20068;-83
2022/09/10 11:20:15;;;;;;;9.50;6.95;;;21.20;99.90;;;;;;5031889;28;20041;-83
2022/09/10 11:22:48;;;;;;;9.35;6.38;;;21.40;99.90;;;;;;5015104;28;20037;-83
2022/09/10 11:25:18;;;;;;;9.18;6.43;;;21.50;99.90;;;;;;5009330;28;20041;-83
2022/09/10 11:28:14;;;;;;;9.50;5.47;;;21.80;99.90;;;;;;5015523;28;20080;-83
2022/09/10 11:30:46;;;;;;;9.48;6.65;;;22.00;99.90;;;;;;5007271;28;20048;-83
2022/09/10 11:33:32;;;;;;;9.68;5.75;;;22.00;99.90;;;;;;5007016;28;20493;-83
2022/09/10 11:36:18;;;;;;;10.52;7.00;;;21.90;99.90;;;;;;5015614;28;20037;-83
2022/09/10 11:38:56;;;;;;;10.73;6.45;;;21.80;99.90;;;;;;5012514;28;20116;-82
2022/09/10 11:41:26;;;;;;;11.50;7.40;;;21.90;99.90;;;;;;5016115;28;20476;-83
2022/09/10 11:44:19;;;;;;;10.13;7.10;;;21.70;99.90;;;;;;5015802;28;20132;-83
2022/09/10 11:47:05;;;;;;;10.52;8.52;;;21.60;99.90;;;;;;5002621;28;20547;-83
2022/09/10 11:49:51;;;;;;;12.27;8.85;;;21.40;99.90;;;;;;5016158;28;20034;-83
2022/09/10 11:52:18;;;;;;;11.40;7.65;;;21.20;99.90;;;;;;5015698;28;20041;-83
2022/09/10 11:54:47;;;;;;;13.55;8.27;;;21.00;99.90;;;;;;5016151;28;20496;-83
2022/09/10 11:57:57;;;;;;;12.23;8.13;;;20.90;99.90;;;;;;5001019;28;20037;-83
2022/09/10 12:00:24;;;;;;;11.00;8.23;;;20.90;99.90;;;;;;5021152;28;20051;-82
2022/09/10 12:03:20;;;;;;;9.82;7.72;;;20.90;99.90;;;;;;5023211;28;20113;-83
2022/09/10 12:06:05;;;;;;;11.10;7.43;;;20.90;99.90;;;;;;5040213;28;20034;-83
2022/09/10 12:09:12;;;;;;;9.02;6.40;;;21.10;99.90;;;;;;5023753;28;20793;-82
2022/09/10 12:12:02;;;;;;;12.00;8.40;;;21.30;99.90;;;;;;4939297;29;20047;-83
2022/09/10 12:14:29;;;;;;;10.15;7.20;;;21.50;99.90;;;;;;5006600;28;20034;-82
2022/09/10 12:17:08;;;;;;;9.48;6.32;;;21.40;99.90;;;;;;5017705;28;20077;-82
2022/09/10 12:19:39;;;;;;;10.98;6.53;;;21.60;99.90;;;;;;5021531;28;20030;-82
2022/09/10 12:22:16;;;;;;;10.77;6.82;;;21.50;99.90;;;;;;5002680;28;20034;-82
2022/09/10 12:24:58;;;;;;;10.38;6.72;;;21.60;99.90;;;;;;5020388;28;20176;-83
2022/09/10 12:28:01;;;;;;;8.85;5.90;;;21.50;99.90;;;;;;5003214;28;20050;-82
2022/09/10 12:30:30;;;;;;;9.40;6.15;;;21.50;99.90;;;;;;5006958;28;20081;-83
2022/09/10 12:33:15;;;;;;;9.63;6.15;;;21.30;99.90;;;;;;5012550;28;20030;-83
2022/09/10 12:35:49;;;;;;;10.35;6.25;;;21.50;99.90;;;;;;4982624;28;20026;-82
2022/09/10 12:38:43;;;;;;;9.57;5.75;;;21.60;99.90;;;;;;4994124;28;20034;-83
2022/09/10 12:41:28;;;;;;;8.77;5.72;;;21.60;99.90;;;;;;5049466;28;20032;-82
2022/09/10 12:43:59;;;;;;;9.30;6.70;;;21.70;99.90;;;;;;5016707;28;20029;-83
2022/09/10 12:46:26;;;;;;;9.43;5.57;;;21.70;99.90;;;;;;5006756;28;20022;-82
2022/09/10 12:48:54;;;;;;;9.18;5.38;;;21.70;99.90;;;;;;5024929;28;20025;-82
2022/09/10 12:51:37;;;;;;;13.20;8.93;;;21.70;99.90;;;;;;5025913;28;20045;-82
2022/09/10 12:54:03;;;;;;;11.80;7.85;;;21.70;99.90;;;;;;4998149;28;20049;-83